createdAt,value
2019-06-20T00:02:41.963Z,989.68
2019-06-20T00:08:45.711Z,989.66
2019-06-20T00:14:49.225Z,989.78
2019-06-20T00:21:10.094Z,989.88
2019-06-20T00:27:13.996Z,989.92
2019-06-20T00:33:35.047Z,989.87
2019-06-20T00:39:38.636Z,989.9
2019-06-20T00:45:59.616Z,989.94
2019-06-20T00:52:03.491Z,990.06
2019-06-20T00:58:24.541Z,990.22
2019-06-20T01:04:28.357Z,990.26
2019-06-20T01:10:31.993Z,990.35
2019-06-20T01:17:10.508Z,990.3
2019-06-20T01:23:14.442Z,990.29
2019-06-20T01:29:18.235Z,990.31
2019-06-20T01:35:56.663Z,990.34
2019-06-20T01:42:00.446Z,990.43
2019-06-20T01:48:04.110Z,990.5
2019-06-20T01:54:42.452Z,990.52
2019-06-20T02:00:46.227Z,990.56
2019-06-20T02:06:50.076Z,990.62
2019-06-20T02:13:10.937Z,990.66
2019-06-20T02:19:31.890Z,990.7
2019-06-20T02:25:52.763Z,990.69
2019-06-20T02:32:13.872Z,990.69
2019-06-20T02:38:34.970Z,990.72
2019-06-20T02:44:56.105Z,990.73
2019-06-20T02:51:17.004Z,990.8
2019-06-20T02:57:38.184Z,990.89
2019-06-20T03:03:42.218Z,991.03
2019-06-20T03:10:20.502Z,991.15
2019-06-20T03:16:42.295Z,991.21
2019-06-20T03:22:46.035Z,991.28
2019-06-20T03:28:50.094Z,991.31
2019-06-20T03:34:54.085Z,991.35
2019-06-20T03:41:15.350Z,991.35
2019-06-20T03:47:21.600Z,991.32
2019-06-20T03:53:42.654Z,991.37
2019-06-20T04:00:03.872Z,991.4
2019-06-20T04:06:07.880Z,991.44
2019-06-20T04:12:11.921Z,991.55
2019-06-20T04:18:16.057Z,991.59
2019-06-20T04:24:19.988Z,991.62
2019-06-20T04:30:23.990Z,991.67
2019-06-20T04:36:48.031Z,991.71
2019-06-20T04:43:26.997Z,991.78
2019-06-20T04:49:48.171Z,991.76
2019-06-20T04:55:52.370Z,991.81
2019-06-20T05:02:14.977Z,991.94
2019-06-20T05:08:19.331Z,992.04
2019-06-20T05:14:23.340Z,992.03
2019-06-20T05:20:44.949Z,992.08
2019-06-20T05:26:51.890Z,992.15
2019-06-20T05:33:13.298Z,992.26
2019-06-20T05:39:17.540Z,992.33
2019-06-20T05:45:21.673Z,992.35
2019-06-20T05:51:25.742Z,992.39
2019-06-20T05:57:29.811Z,992.46
2019-06-20T06:03:51.301Z,992.49
2019-06-20T06:09:57.640Z,992.51
2019-06-20T06:16:01.874Z,992.61
2019-06-20T06:22:23.305Z,992.67
2019-06-20T06:28:27.195Z,992.64
2019-06-20T06:34:41.258Z,992.59
2019-06-20T06:41:19.903Z,992.58
2019-06-20T06:47:25.193Z,992.65
2019-06-20T06:54:03.989Z,992.67
2019-06-20T07:00:08.147Z,992.64
2019-06-20T07:06:29.937Z,992.67
2019-06-20T07:12:33.899Z,992.72
2019-06-20T07:18:44.732Z,992.7
2019-06-20T07:24:48.760Z,992.71
2019-06-20T07:31:10.122Z,992.67
2019-06-20T07:37:14.129Z,992.71
2019-06-20T07:43:18.319Z,992.74
2019-06-20T07:49:31.037Z,992.76
2019-06-20T07:55:35.134Z,992.85
2019-06-20T08:02:14.001Z,992.9
2019-06-20T08:08:18.299Z,993.06
2019-06-20T08:14:22.555Z,993.2
2019-06-20T08:20:26.687Z,992.83
2019-06-20T15:18:31.857Z,993.81
2019-06-20T15:24:55.030Z,993.86
2019-06-20T15:31:18.320Z,993.89
2019-06-20T15:37:26.497Z,993.87
2019-06-20T15:43:33.959Z,993.86
2019-06-20T15:49:51.519Z,993.8
2019-06-20T15:56:13.026Z,993.81
2019-06-20T16:02:16.812Z,993.85
2019-06-20T16:08:20.783Z,993.9
2019-06-20T16:14:42.258Z,993.87
2019-06-20T16:20:46.146Z,993.82
2019-06-20T16:27:07.543Z,993.85
2019-06-20T16:33:23.986Z,993.84
2019-06-20T16:39:28.864Z,993.89
2019-06-20T16:45:33.217Z,993.86
2019-06-20T16:51:37.426Z,993.86
2019-06-20T16:57:58.932Z,993.9
2019-06-20T17:04:02.856Z,993.84
2019-06-20T17:10:06.998Z,993.89
2019-06-20T17:16:31.182Z,993.92
2019-06-20T17:22:35.259Z,993.94
2019-06-20T17:28:39.105Z,993.97
2019-06-20T17:35:00.415Z,994.04
2019-06-20T17:41:21.527Z,994.07
2019-06-20T17:47:25.512Z,994.13
2019-06-20T17:53:29.353Z,994.18
2019-06-20T17:59:33.115Z,994.22
2019-06-20T18:05:37.329Z,994.29
2019-06-20T18:11:44.392Z,994.32
2019-06-20T18:17:52.315Z,994.36
2019-06-20T18:24:13.632Z,994.38
2019-06-20T18:30:17.797Z,994.49
2019-06-20T18:36:21.688Z,994.58
2019-06-20T18:42:25.679Z,994.59
2019-06-20T18:48:30.206Z,994.64
2019-06-20T18:54:34.361Z,994.64
2019-06-20T19:00:38.277Z,994.72
2019-06-20T19:06:42.262Z,994.8
2019-06-20T19:12:46.346Z,994.89
2019-06-20T19:18:50.377Z,994.99
2019-06-20T19:25:11.818Z,995.13
2019-06-20T19:31:15.585Z,995.23
2019-06-20T19:37:20.204Z,995.32
2019-06-20T19:43:41.715Z,995.44
2019-06-20T19:50:20.439Z,995.52
2019-06-20T19:56:24.373Z,995.59
2019-06-20T20:02:28.352Z,995.6
2019-06-20T20:08:32.369Z,995.68
2019-06-20T20:14:36.083Z,995.71
2019-06-20T20:20:57.208Z,995.92
2019-06-20T20:27:18.362Z,996.01
2019-06-20T20:33:39.542Z,995.96
2019-06-20T20:40:09.485Z,996
2019-06-20T20:46:30.519Z,996.03
2019-06-20T20:52:34.039Z,996.09
2019-06-20T20:58:37.821Z,996.12
2019-06-20T21:04:41.649Z,996.12
2019-06-20T21:10:45.634Z,996.14
2019-06-20T21:17:06.456Z,996.22
2019-06-20T21:23:10.389Z,996.28
2019-06-20T21:29:31.522Z,996.37
2019-06-20T21:35:35.346Z,996.36
2019-06-20T21:41:39.093Z,996.38
2019-06-20T21:48:17.285Z,996.46
2019-06-20T21:54:38.363Z,996.48
2019-06-20T22:00:42.084Z,996.54
2019-06-20T22:06:45.892Z,996.54
2019-06-20T22:12:49.643Z,996.61
2019-06-20T22:19:10.694Z,996.66
2019-06-20T22:25:31.603Z,996.67
2019-06-20T22:31:35.388Z,996.75
2019-06-20T22:37:39.199Z,996.82
2019-06-20T22:43:59.971Z,996.9
2019-06-20T22:50:38.367Z,997.01
2019-06-20T22:57:17.679Z,997.08
2019-06-20T23:03:21.213Z,997.13
2019-06-20T23:10:11.493Z,997.18
2019-06-20T23:16:15.194Z,997.16
2019-06-20T23:22:36.530Z,997.14
2019-06-20T23:29:15.017Z,997.2
2019-06-20T23:35:18.373Z,997.08
2019-06-20T23:41:22.128Z,996.97
2019-06-20T23:47:43.203Z,997.05
2019-06-20T23:53:46.889Z,997.17
